sensor_id;sensor_type;location;lat;lon;timestamp;pressure;altitude;pressure_sealevel;temperature;humidity
53647;BME280;39550;52.230;5.194;2022-09-01T00:02:17;102124.00;;;19.04;56.95
53647;BME280;39550;52.230;5.194;2022-09-01T00:04:43;102124.00;;;19.04;56.82
53647;BME280;39550;52.230;5.194;2022-09-01T00:07:10;102121.41;;;19.04;56.64
53647;BME280;39550;52.230;5.194;2022-09-01T00:09:36;102113.56;;;19.03;57.03
53647;BME280;39550;52.230;5.194;2022-09-01T00:12:04;102118.81;;;19.01;57.05
53647;BME280;39550;52.230;5.194;2022-09-01T00:14:32;102118.81;;;19.01;56.73
53647;BME280;39550;52.230;5.194;2022-09-01T00:17:00;102118.81;;;19.01;56.95
53647;BME280;39550;52.230;5.194;2022-09-01T00:19:27;102099.69;;;18.95;57.09
53647;BME280;39550;52.230;5.194;2022-09-01T00:21:54;102106.66;;;18.97;57.18
53647;BME280;39550;52.230;5.194;2022-09-01T00:24:20;102104.03;;;18.97;56.79
53647;BME280;39550;52.230;5.194;2022-09-01T00:26:46;102116.22;;;18.98;56.87
53647;BME280;39550;52.230;5.194;2022-09-01T00:29:12;102115.34;;;18.96;56.63
53647;BME280;39550;52.230;5.194;2022-09-01T00:31:38;102107.53;;;18.93;56.77
53647;BME280;39550;52.230;5.194;2022-09-01T00:34:03;102103.19;;;18.92;57.40
53647;BME280;39550;52.230;5.194;2022-09-01T00:36:29;102113.63;;;18.95;57.02
53647;BME280;39550;52.230;5.194;2022-09-01T00:38:55;102106.69;;;18.94;56.90
53647;BME280;39550;52.230;5.194;2022-09-01T00:41:23;102113.63;;;18.92;57.43
53647;BME280;39550;52.230;5.194;2022-09-01T00:43:54;102108.41;;;18.92;56.92
53647;BME280;39550;52.230;5.194;2022-09-01T00:46:22;102110.16;;;18.92;57.58
53647;BME280;39550;52.230;5.194;2022-09-01T00:48:52;102108.44;;;18.89;57.41
53647;BME280;39550;52.230;5.194;2022-09-01T00:51:18;102106.69;;;18.89;57.10
53647;BME280;39550;52.230;5.194;2022-09-01T00:53:44;102104.97;;;18.88;57.33
53647;BME280;39550;52.230;5.194;2022-09-01T00:56:10;102100.63;;;18.87;57.33
53647;BME280;39550;52.230;5.194;2022-09-01T00:58:37;102104.94;;;18.87;57.62
53647;BME280;39550;52.230;5.194;2022-09-01T01:01:05;102098.00;;;18.86;57.13
53647;BME280;39550;52.230;5.194;2022-09-01T01:03:32;102096.25;;;18.85;57.16
53647;BME280;39550;52.230;5.194;2022-09-01T01:06:02;102091.91;;;18.84;57.70
53647;BME280;39550;52.230;5.194;2022-09-01T01:08:32;102091.91;;;18.84;57.46
53647;BME280;39550;52.230;5.194;2022-09-01T01:11:16;102092.75;;;18.83;57.50
53647;BME280;39550;52.230;5.194;2022-09-01T01:13:51;102096.28;;;18.82;57.47
53647;BME280;39550;52.230;5.194;2022-09-01T01:16:17;102088.44;;;18.82;57.74
53647;BME280;39550;52.230;5.194;2022-09-01T01:18:43;102085.81;;;18.79;57.70
53647;BME280;39550;52.230;5.194;2022-09-01T01:21:16;102094.53;;;18.79;57.47
53647;BME280;39550;52.230;5.194;2022-09-01T01:26:46;102090.22;;;18.77;57.71
53647;BME280;39550;52.230;5.194;2022-09-01T01:29:12;102079.78;;;18.75;57.50
53647;BME280;39550;52.230;5.194;2022-09-01T01:31:39;102082.41;;;18.74;57.36
53647;BME280;39550;52.230;5.194;2022-09-01T01:34:04;102090.22;;;18.74;57.42
53647;BME280;39550;52.230;5.194;2022-09-01T01:36:35;102080.66;;;18.74;57.63
53647;BME280;39550;52.230;5.194;2022-09-01T01:39:08;102078.91;;;18.71;57.94
53647;BME280;39550;52.230;5.194;2022-09-01T01:41:35;102078.91;;;18.71;57.52
53647;BME280;39550;52.230;5.194;2022-09-01T01:44:05;102080.69;;;18.69;57.63
53647;BME280;39550;52.230;5.194;2022-09-01T01:46:32;102080.69;;;18.69;57.57
53647;BME280;39550;52.230;5.194;2022-09-01T01:48:58;102084.16;;;18.68;58.01
53647;BME280;39550;52.230;5.194;2022-09-01T01:51:26;102074.63;;;18.64;57.98
53647;BME280;39550;52.230;5.194;2022-09-01T01:53:55;102078.09;;;18.66;58.22
53647;BME280;39550;52.230;5.194;2022-09-01T01:56:22;102083.31;;;18.66;58.02
53647;BME280;39550;52.230;5.194;2022-09-01T01:58:55;102082.44;;;18.64;58.01
53647;BME280;39550;52.230;5.194;2022-09-01T02:01:24;102088.53;;;18.65;57.97
53647;BME280;39550;52.230;5.194;2022-09-01T02:03:50;102091.16;;;18.63;57.91
53647;BME280;39550;52.230;5.194;2022-09-01T02:06:19;102080.72;;;18.60;58.08
53647;BME280;39550;52.230;5.194;2022-09-01T02:08:49;102086.81;;;18.62;57.84
53647;BME280;39550;52.230;5.194;2022-09-01T02:11:14;102090.31;;;18.61;58.01
53647;BME280;39550;52.230;5.194;2022-09-01T02:13:41;102087.72;;;18.60;58.24
53647;BME280;39550;52.230;5.194;2022-09-01T02:16:07;102085.97;;;18.59;57.68
53647;BME280;39550;52.230;5.194;2022-09-01T02:18:47;102083.34;;;18.59;57.68
53647;BME280;39550;52.230;5.194;2022-09-01T02:21:14;102085.97;;;18.57;58.04
53647;BME280;39550;52.230;5.194;2022-09-01T02:23:51;102080.78;;;18.54;57.87
53647;BME280;39550;52.230;5.194;2022-09-01T02:26:26;102081.63;;;18.54;58.12
53647;BME280;39550;52.230;5.194;2022-09-01T02:28:56;102087.72;;;18.53;57.91
53647;BME280;39550;52.230;5.194;2022-09-01T02:31:22;102072.13;;;18.46;57.85
53647;BME280;39550;52.230;5.194;2022-09-01T02:33:48;102089.47;;;18.53;57.81
53647;BME280;39550;52.230;5.194;2022-09-01T02:36:16;102075.56;;;18.48;57.82
53647;BME280;39550;52.230;5.194;2022-09-01T02:38:43;102089.50;;;18.50;58.34
53647;BME280;39550;52.230;5.194;2022-09-01T02:41:10;102084.28;;;18.50;58.35
53647;BME280;39550;52.230;5.194;2022-09-01T02:43:37;102089.50;;;18.50;58.27
53647;BME280;39550;52.230;5.194;2022-09-01T02:46:04;102081.66;;;18.47;57.95
53647;BME280;39550;52.230;5.194;2022-09-01T02:48:33;102089.50;;;18.47;58.03
53647;BME280;39550;52.230;5.194;2022-09-01T02:51:01;102086.03;;;18.46;58.18
53647;BME280;39550;52.230;5.194;2022-09-01T02:53:28;102084.28;;;18.44;57.89
53647;BME280;39550;52.230;5.194;2022-09-01T02:55:55;102087.78;;;18.44;58.43
53647;BME280;39550;52.230;5.194;2022-09-01T02:58:25;102079.09;;;18.41;58.52
53647;BME280;39550;52.230;5.194;2022-09-01T03:00:53;102075.63;;;18.42;58.47
53647;BME280;39550;52.230;5.194;2022-09-01T03:03:18;102078.25;;;18.40;58.40
53647;BME280;39550;52.230;5.194;2022-09-01T03:05:46;102075.63;;;18.38;58.43
53647;BME280;39550;52.230;5.194;2022-09-01T03:08:11;102065.22;;;18.32;58.27
53647;BME280;39550;52.230;5.194;2022-09-01T03:10:41;102070.41;;;18.37;58.15
53647;BME280;39550;52.230;5.194;2022-09-01T03:13:13;102071.31;;;18.36;58.09
53647;BME280;39550;52.230;5.194;2022-09-01T03:15:39;102073.06;;;18.32;58.22
53647;BME280;39550;52.230;5.194;2022-09-01T03:18:07;102068.69;;;18.31;58.26
53647;BME280;39550;52.230;5.194;2022-09-01T03:20:34;102074.78;;;18.33;58.38
53647;BME280;39550;52.230;5.194;2022-09-01T03:23:01;102071.31;;;18.31;58.31
53647;BME280;39550;52.230;5.194;2022-09-01T03:25:30;102067.84;;;18.31;58.29
53647;BME280;39550;52.230;5.194;2022-09-01T03:27:56;102069.56;;;18.29;58.08
53647;BME280;39550;52.230;5.194;2022-09-01T03:30:28;102075.69;;;18.29;58.67
53647;BME280;39550;52.230;5.194;2022-09-01T03:32:55;102065.22;;;18.26;58.60
53647;BME280;39550;52.230;5.194;2022-09-01T03:35:21;102070.44;;;18.26;58.53
53647;BME280;39550;52.230;5.194;2022-09-01T03:37:46;102065.22;;;18.26;58.35
53647;BME280;39550;52.230;5.194;2022-09-01T03:40:12;102069.59;;;18.24;58.38
53647;BME280;39550;52.230;5.194;2022-09-01T03:42:39;102057.44;;;18.23;57.88
53647;BME280;39550;52.230;5.194;2022-09-01T03:45:06;102060.03;;;18.23;58.12
53647;BME280;39550;52.230;5.194;2022-09-01T03:47:37;102054.81;;;18.23;58.49
53647;BME280;39550;52.230;5.194;2022-09-01T03:50:06;102053.09;;;18.22;58.76
53647;BME280;39550;52.230;5.194;2022-09-01T03:52:32;102052.22;;;18.20;58.27
53647;BME280;39550;52.230;5.194;2022-09-01T03:54:58;102054.81;;;18.21;58.08
53647;BME280;39550;52.230;5.194;2022-09-01T03:57:23;102047.88;;;18.19;58.11
53647;BME280;39550;52.230;5.194;2022-09-01T03:59:50;102054.84;;;18.17;58.32
53647;BME280;39550;52.230;5.194;2022-09-01T04:02:16;102046.16;;;18.18;58.05
53647;BME280;39550;52.230;5.194;2022-09-01T04:04:41;102053.97;;;18.16;58.23
53647;BME280;39550;52.230;5.194;2022-09-01T04:07:06;102053.13;;;18.16;58.58
53647;BME280;39550;52.230;5.194;2022-09-01T04:09:32;102049.66;;;18.15;58.33
53647;BME280;39550;52.230;5.194;2022-09-01T04:11:59;102054.88;;;18.14;58.19
53647;BME280;39550;52.230;5.194;2022-09-01T04:14:24;102046.19;;;18.12;58.73
53647;BME280;39550;52.230;5.194;2022-09-01T04:16:51;102053.13;;;18.13;58.60
53647;BME280;39550;52.230;5.194;2022-09-01T04:19:36;102051.41;;;18.12;58.32
53647;BME280;39550;52.230;5.194;2022-09-01T04:22:04;102044.44;;;18.11;58.68
53647;BME280;39550;52.230;5.194;2022-09-01T04:24:31;102047.06;;;18.09;58.49
53647;BME280;39550;52.230;5.194;2022-09-01T04:26:59;102050.53;;;18.08;58.51
53647;BME280;39550;52.230;5.194;2022-09-01T04:29:26;102052.28;;;18.09;58.74
53647;BME280;39550;52.230;5.194;2022-09-01T04:31:58;102053.16;;;18.10;58.05
53647;BME280;39550;52.230;5.194;2022-09-01T04:34:27;102054.03;;;18.07;58.66
53647;BME280;39550;52.230;5.194;2022-09-01T04:36:52;102053.16;;;18.07;58.67
53647;BME280;39550;52.230;5.194;2022-09-01T04:39:19;102046.22;;;18.07;58.11
53647;BME280;39550;52.230;5.194;2022-09-01T04:41:44;102053.16;;;18.07;58.77
53647;BME280;39550;52.230;5.194;2022-09-01T04:44:10;102053.16;;;18.03;58.51
53647;BME280;39550;52.230;5.194;2022-09-01T04:46:41;102051.41;;;18.02;58.73
53647;BME280;39550;52.230;5.194;2022-09-01T04:49:08;102047.13;;;18.00;58.33
53647;BME280;39550;52.230;5.194;2022-09-01T04:51:41;102042.78;;;17.97;58.75
53647;BME280;39550;52.230;5.194;2022-09-01T04:54:07;102048.84;;;17.99;58.33
53647;BME280;39550;52.230;5.194;2022-09-01T04:56:37;102048.84;;;17.98;58.42
53647;BME280;39550;52.230;5.194;2022-09-01T04:59:03;102051.47;;;17.96;58.85
53647;BME280;39550;52.230;5.194;2022-09-01T05:01:31;102050.56;;;17.94;59.07
53647;BME280;39550;52.230;5.194;2022-09-01T05:04:40;102050.59;;;17.93;58.41
53647;BME280;39550;52.230;5.194;2022-09-01T05:06:59;102056.69;;;17.93;58.87
53647;BME280;39550;52.230;5.194;2022-09-01T05:09:27;102049.72;;;17.92;57.99
53647;BME280;39550;52.230;5.194;2022-09-01T05:11:53;102047.97;;;17.88;58.76
53647;BME280;39550;52.230;5.194;2022-09-01T05:14:19;102050.59;;;17.85;58.38
53647;BME280;39550;52.230;5.194;2022-09-01T05:16:46;102050.59;;;17.88;58.95
53647;BME280;39550;52.230;5.194;2022-09-01T05:19:13;102057.53;;;17.91;58.53
53647;BME280;39550;52.230;5.194;2022-09-01T05:21:40;102057.56;;;17.87;58.69
53647;BME280;39550;52.230;5.194;2022-09-01T05:24:06;102054.94;;;17.89;58.65
53647;BME280;39550;52.230;5.194;2022-09-01T05:26:33;102060.16;;;17.89;58.90
53647;BME280;39550;52.230;5.194;2022-09-01T05:29:03;102054.03;;;17.88;58.37
53647;BME280;39550;52.230;5.194;2022-09-01T05:31:35;102056.66;;;17.87;59.00
53647;BME280;39550;52.230;5.194;2022-09-01T05:34:02;102061.88;;;17.87;59.14
53647;BME280;39550;52.230;5.194;2022-09-01T05:36:28;102054.91;;;17.86;59.08
53647;BME280;39550;52.230;5.194;2022-09-01T05:38:58;102054.03;;;17.90;58.44
53647;BME280;39550;52.230;5.194;2022-09-01T05:41:25;102057.53;;;17.91;58.37
53647;BME280;39550;52.230;5.194;2022-09-01T05:43:50;102050.56;;;17.90;58.50
53647;BME280;39550;52.230;5.194;2022-09-01T05:46:23;102050.59;;;17.83;58.98
53647;BME280;39550;52.230;5.194;2022-09-01T05:48:52;102054.06;;;17.84;58.41
53647;BME280;39550;52.230;5.194;2022-09-01T05:51:20;102054.06;;;17.84;58.30
53647;BME280;39550;52.230;5.194;2022-09-01T05:53:47;102061.03;;;17.86;58.54
53647;BME280;39550;52.230;5.194;2022-09-01T05:56:17;102052.31;;;17.83;58.35
53647;BME280;39550;52.230;5.194;2022-09-01T05:58:44;102062.78;;;17.70;57.99
53647;BME280;39550;52.230;5.194;2022-09-01T06:01:16;102062.78;;;17.72;58.96
53647;BME280;39550;52.230;5.194;2022-09-01T06:03:43;102061.06;;;17.69;58.78
53647;BME280;39550;52.230;5.194;2022-09-01T06:06:09;102068.00;;;17.72;58.48
53647;BME280;39550;52.230;5.194;2022-09-01T06:08:36;102073.22;;;17.72;58.79
53647;BME280;39550;52.230;5.194;2022-09-01T06:11:02;102070.63;;;17.74;58.63
53647;BME280;39550;52.230;5.194;2022-09-01T06:13:37;102067.13;;;17.75;58.58
53647;BME280;39550;52.230;5.194;2022-09-01T06:16:03;102070.63;;;17.74;58.30
53647;BME280;39550;52.230;5.194;2022-09-01T06:18:29;102071.47;;;17.74;58.10
53647;BME280;39550;52.230;5.194;2022-09-01T06:20:58;102061.06;;;17.63;58.36
53647;BME280;39550;52.230;5.194;2022-09-01T06:23:24;102068.91;;;17.59;58.79
53647;BME280;39550;52.230;5.194;2022-09-01T06:25:49;102064.53;;;17.62;59.45
53647;BME280;39550;52.230;5.194;2022-09-01T06:28:17;102064.53;;;17.68;58.20
53647;BME280;39550;52.230;5.194;2022-09-01T06:30:47;102068.00;;;17.70;58.76
53647;BME280;39550;52.230;5.194;2022-09-01T06:33:13;102068.00;;;17.69;58.02
53647;BME280;39550;52.230;5.194;2022-09-01T06:35:40;102072.34;;;17.75;58.30
53647;BME280;39550;52.230;5.194;2022-09-01T06:38:06;102068.88;;;17.76;57.81
53647;BME280;39550;52.230;5.194;2022-09-01T06:40:33;102070.63;;;17.77;57.71
53647;BME280;39550;52.230;5.194;2022-09-01T06:42:59;102071.47;;;17.76;58.41
53647;BME280;39550;52.230;5.194;2022-09-01T06:45:26;102074.94;;;17.76;57.75
53647;BME280;39550;52.230;5.194;2022-09-01T06:47:51;102070.59;;;17.80;58.25
53647;BME280;39550;52.230;5.194;2022-09-01T06:50:21;102081.03;;;17.77;58.00
53647;BME280;39550;52.230;5.194;2022-09-01T06:52:48;102079.28;;;17.79;57.93
53647;BME280;39550;52.230;5.194;2022-09-01T06:55:15;102075.81;;;17.80;57.99
53647;BME280;39550;52.230;5.194;2022-09-01T06:57:42;102084.47;;;17.82;57.80
53647;BME280;39550;52.230;5.194;2022-09-01T07:00:15;102091.44;;;17.83;57.60
53647;BME280;39550;52.230;5.194;2022-09-01T07:02:46;102089.72;;;17.85;57.69
53647;BME280;39550;52.230;5.194;2022-09-01T07:05:13;102089.72;;;17.85;57.75
53647;BME280;39550;52.230;5.194;2022-09-01T07:07:53;102089.69;;;17.88;57.86
53647;BME280;39550;52.230;5.194;2022-09-01T07:10:24;102084.47;;;17.88;57.54
53647;BME280;39550;52.230;5.194;2022-09-01T07:12:54;102096.63;;;17.86;57.62
53647;BME280;39550;52.230;5.194;2022-09-01T07:15:21;102090.56;;;17.88;58.13
53647;BME280;39550;52.230;5.194;2022-09-01T07:17:50;102093.16;;;17.87;57.52
53647;BME280;39550;52.230;5.194;2022-09-01T07:20:17;102090.53;;;17.90;57.35
53647;BME280;39550;52.230;5.194;2022-09-01T07:22:48;102090.53;;;17.90;57.72
53647;BME280;39550;52.230;5.194;2022-09-01T07:25:14;102076.69;;;17.83;57.62
53647;BME280;39550;52.230;5.194;2022-09-01T07:27:40;102093.19;;;17.93;57.25
53647;BME280;39550;52.230;5.194;2022-09-01T07:30:09;102093.19;;;17.93;57.38
53647;BME280;39550;52.230;5.194;2022-09-01T07:32:36;102077.50;;;17.90;57.15
53647;BME280;39550;52.230;5.194;2022-09-01T07:35:04;102091.47;;;17.92;57.39
53647;BME280;39550;52.230;5.194;2022-09-01T07:37:30;102082.78;;;17.93;57.38
53647;BME280;39550;52.230;5.194;2022-09-01T07:39:56;102086.22;;;17.95;57.56
53647;BME280;39550;52.230;5.194;2022-09-01T07:42:22;102084.50;;;17.97;56.71
53647;BME280;39550;52.230;5.194;2022-09-01T07:44:48;102083.59;;;17.97;56.85
53647;BME280;39550;52.230;5.194;2022-09-01T07:47:14;102084.47;;;18.00;57.19
53647;BME280;39550;52.230;5.194;2022-09-01T07:49:40;102090.56;;;18.01;56.72
53647;BME280;39550;52.230;5.194;2022-09-01T07:52:05;102085.34;;;17.98;57.19
53647;BME280;39550;52.230;5.194;2022-09-01T07:54:31;102087.09;;;17.97;56.70
53647;BME280;39550;52.230;5.194;2022-09-01T07:56:58;102096.66;;;18.03;56.44
53647;BME280;39550;52.230;5.194;2022-09-01T07:59:24;102094.06;;;18.01;56.72
53647;BME280;39550;52.230;5.194;2022-09-01T08:01:53;102091.44;;;18.01;57.03
53647;BME280;39550;52.230;5.194;2022-09-01T08:04:18;102089.69;;;18.03;56.90
53647;BME280;39550;52.230;5.194;2022-09-01T08:06:47;102086.22;;;18.01;56.87
53647;BME280;39550;52.230;5.194;2022-09-01T08:09:13;102077.53;;;17.96;56.80
53647;BME280;39550;52.230;5.194;2022-09-01T08:11:39;102086.22;;;18.04;57.23
53647;BME280;39550;52.230;5.194;2022-09-01T08:14:04;102080.13;;;18.02;57.02
53647;BME280;39550;52.230;5.194;2022-09-01T08:16:30;102071.47;;;17.97;56.42
53647;BME280;39550;52.230;5.194;2022-09-01T08:18:56;102085.31;;;18.04;57.24
53647;BME280;39550;52.230;5.194;2022-09-01T08:21:22;102086.19;;;18.08;56.32
53647;BME280;39550;52.230;5.194;2022-09-01T08:23:52;102092.25;;;18.08;56.16
53647;BME280;39550;52.230;5.194;2022-09-01T08:26:20;102091.41;;;18.08;56.78
53647;BME280;39550;52.230;5.194;2022-09-01T08:28:47;102093.16;;;18.09;56.72
53647;BME280;39550;52.230;5.194;2022-09-01T08:31:15;102091.38;;;18.11;56.28
53647;BME280;39550;52.230;5.194;2022-09-01T08:33:43;102087.06;;;18.13;56.17
53647;BME280;39550;52.230;5.194;2022-09-01T08:36:10;102087.91;;;18.15;56.13
53647;BME280;39550;52.230;5.194;2022-09-01T08:38:36;102080.06;;;18.16;56.30
53647;BME280;39550;52.230;5.194;2022-09-01T08:41:04;102082.69;;;18.19;56.07
53647;BME280;39550;52.230;5.194;2022-09-01T08:43:49;102086.13;;;18.23;55.66
53647;BME280;39550;52.230;5.194;2022-09-01T08:46:27;102086.13;;;18.23;55.08
53647;BME280;39550;52.230;5.194;2022-09-01T08:49:01;102086.13;;;18.23;55.68
53647;BME280;39550;52.230;5.194;2022-09-01T08:51:51;102082.66;;;18.24;55.61
53647;BME280;39550;52.230;5.194;2022-09-01T08:54:41;102078.28;;;18.26;55.27
53647;BME280;39550;52.230;5.194;2022-09-01T08:59:42;102075.69;;;18.29;55.00
53647;BME280;39550;52.230;5.194;2022-09-01T09:05:19;102079.97;;;18.38;54.43
53647;BME280;39550;52.230;5.194;2022-09-01T09:21:18;102065.16;;;18.46;53.66
53647;BME280;39550;52.230;5.194;2022-09-01T09:23:48;102066.88;;;18.49;53.93
53647;BME280;39550;52.230;5.194;2022-09-01T09:26:16;102067.72;;;18.51;53.90
53647;BME280;39550;52.230;5.194;2022-09-01T09:28:46;102063.38;;;18.51;53.80
53647;BME280;39550;52.230;5.194;2022-09-01T09:31:35;102064.25;;;18.52;53.78
53647;BME280;39550;52.230;5.194;2022-09-01T09:34:34;102057.28;;;18.54;53.33
53647;BME280;39550;52.230;5.194;2022-09-01T09:37:25;102059.91;;;18.54;53.67
53647;BME280;39550;52.230;5.194;2022-09-01T09:40:05;102051.16;;;18.55;54.01
53647;BME280;39550;52.230;5.194;2022-09-01T09:42:35;102043.34;;;18.58;53.67
53647;BME280;39550;52.230;5.194;2022-09-01T09:45:06;102033.75;;;18.60;53.13
53647;BME280;39550;52.230;5.194;2022-09-01T09:47:42;102031.13;;;18.62;52.34
53647;BME280;39550;52.230;5.194;2022-09-01T09:50:27;102025.00;;;18.64;52.64
53647;BME280;39550;52.230;5.194;2022-09-01T09:53:25;102032.81;;;18.67;53.20
53647;BME280;39550;52.230;5.194;2022-09-01T09:58:21;102031.09;;;18.68;53.37
53647;BME280;39550;52.230;5.194;2022-09-01T10:01:08;102040.63;;;18.70;53.36
53647;BME280;39550;52.230;5.194;2022-09-01T10:03:42;102034.50;;;18.76;52.40
53647;BME280;39550;52.230;5.194;2022-09-01T10:06:10;102024.91;;;18.77;53.05
53647;BME280;39550;52.230;5.194;2022-09-01T10:08:38;102032.75;;;18.77;52.77
53647;BME280;39550;52.230;5.194;2022-09-01T10:11:09;102032.75;;;18.78;53.11
53647;BME280;39550;52.230;5.194;2022-09-01T10:13:35;102032.72;;;18.80;53.18
53647;BME280;39550;52.230;5.194;2022-09-01T10:16:15;102027.50;;;18.80;52.92
53647;BME280;39550;52.230;5.194;2022-09-01T10:18:44;102022.25;;;18.81;52.31
53647;BME280;39550;52.230;5.194;2022-09-01T10:21:14;102025.72;;;18.85;53.51
53647;BME280;39550;52.230;5.194;2022-09-01T10:23:41;102012.69;;;18.85;53.07
53647;BME280;39550;52.230;5.194;2022-09-01T10:26:22;102007.44;;;18.85;53.59
53647;BME280;39550;52.230;5.194;2022-09-01T10:28:58;102029.19;;;18.92;52.89
53647;BME280;39550;52.230;5.194;2022-09-01T10:31:26;102001.38;;;18.87;53.17
53647;BME280;39550;52.230;5.194;2022-09-01T10:33:52;102015.28;;;18.86;52.78
53647;BME280;39550;52.230;5.194;2022-09-01T10:36:17;102025.69;;;18.93;53.21
53647;BME280;39550;52.230;5.194;2022-09-01T10:38:43;102017.88;;;18.94;53.01
53647;BME280;39550;52.230;5.194;2022-09-01T10:41:09;102008.25;;;18.98;52.83
53647;BME280;39550;52.230;5.194;2022-09-01T10:43:40;102013.44;;;18.99;52.60
53647;BME280;39550;52.230;5.194;2022-09-01T10:48:44;102009.97;;;19.00;52.44
53647;BME280;39550;52.230;5.194;2022-09-01T10:53:39;102011.66;;;19.04;52.73
53647;BME280;39550;52.230;5.194;2022-09-01T11:09:24;101998.50;;;19.17;52.86
53647;BME280;39550;52.230;5.194;2022-09-01T11:12:35;101998.47;;;19.20;52.24
53647;BME280;39550;52.230;5.194;2022-09-01T11:17:37;101995.81;;;19.21;51.87
53647;BME280;39550;52.230;5.194;2022-09-01T11:20:22;102001.03;;;19.23;53.22
53647;BME280;39550;52.230;5.194;2022-09-01T11:25:40;101989.66;;;19.27;52.90
53647;BME280;39550;52.230;5.194;2022-09-01T11:31:13;101993.13;;;19.32;52.27
53647;BME280;39550;52.230;5.194;2022-09-01T11:34:01;101987.88;;;19.32;51.54
53647;BME280;39550;52.230;5.194;2022-09-01T11:36:49;101983.38;;;19.45;50.98
53647;BME280;39550;52.230;5.194;2022-09-01T11:42:01;101972.88;;;19.51;50.44
53647;BME280;39550;52.230;5.194;2022-09-01T11:47:11;101977.22;;;19.54;51.14
53647;BME280;39550;52.230;5.194;2022-09-01T11:52:22;101966.72;;;19.57;51.55
53647;BME280;39550;52.230;5.194;2022-09-01T11:54:49;101971.03;;;19.61;51.94
53647;BME280;39550;52.230;5.194;2022-09-01T11:57:16;101970.09;;;19.65;50.98
53647;BME280;39550;52.230;5.194;2022-09-01T11:59:42;101960.47;;;19.67;50.05
53647;BME280;39550;52.230;5.194;2022-09-01T12:02:07;101962.19;;;19.70;50.94
53647;BME280;39550;52.230;5.194;2022-09-01T12:04:34;101957.81;;;19.72;50.44
53647;BME280;39550;52.230;5.194;2022-09-01T12:07:11;101943.84;;;19.71;51.48
53647;BME280;39550;52.230;5.194;2022-09-01T12:09:37;101945.53;;;19.79;50.97
53647;BME280;39550;52.230;5.194;2022-09-01T12:12:05;101949.88;;;19.78;51.32
53647;BME280;39550;52.230;5.194;2022-09-01T12:14:31;101951.63;;;19.81;50.75
53647;BME280;39550;52.230;5.194;2022-09-01T12:17:04;101947.22;;;19.86;49.19
53647;BME280;39550;52.230;5.194;2022-09-01T12:19:33;101948.00;;;19.93;50.26
53647;BME280;39550;52.230;5.194;2022-09-01T12:22:02;101946.16;;;19.99;50.01
53647;BME280;39550;52.230;5.194;2022-09-01T12:24:31;101945.09;;;20.13;48.61
53647;BME280;39550;52.230;5.194;2022-09-01T12:26:58;101944.97;;;20.22;47.78
53647;BME280;39550;52.230;5.194;2022-09-01T12:29:25;101953.50;;;20.33;49.53
53647;BME280;39550;52.230;5.194;2022-09-01T12:31:52;101949.88;;;20.42;48.49
53647;BME280;39550;52.230;5.194;2022-09-01T12:37:18;101946.34;;;20.45;48.36
53647;BME280;39550;52.230;5.194;2022-09-01T12:39:50;101944.41;;;20.59;47.17
53647;BME280;39550;52.230;5.194;2022-09-01T12:50:03;101933.34;;;20.93;46.52
53647;BME280;39550;52.230;5.194;2022-09-01T12:52:30;101932.59;;;20.86;47.98
53647;BME280;39550;52.230;5.194;2022-09-01T12:57:33;101929.31;;;20.73;47.99
53647;BME280;39550;52.230;5.194;2022-09-01T13:00:20;101924.88;;;20.79;47.97
53647;BME280;39550;52.230;5.194;2022-09-01T13:07:47;101920.69;;;20.67;47.73
53647;BME280;39550;52.230;5.194;2022-09-01T13:10:12;101913.69;;;20.67;47.77
53647;BME280;39550;52.230;5.194;2022-09-01T13:12:40;101917.91;;;20.78;48.16
53647;BME280;39550;52.230;5.194;2022-09-01T13:15:07;101907.22;;;20.90;47.84
53647;BME280;39550;52.230;5.194;2022-09-01T13:17:32;101904.63;;;20.88;47.51
53647;BME280;39550;52.230;5.194;2022-09-01T13:19:58;101902.56;;;21.04;46.80
53647;BME280;39550;52.230;5.194;2022-09-01T13:22:23;101901.97;;;21.35;47.34
53647;BME280;39550;52.230;5.194;2022-09-01T13:24:49;101895.06;;;21.73;46.76
53647;BME280;39550;52.230;5.194;2022-09-01T13:27:14;101901.91;;;21.81;46.28
53647;BME280;39550;52.230;5.194;2022-09-01T13:29:39;101893.88;;;21.88;46.30
53647;BME280;39550;52.230;5.194;2022-09-01T13:32:05;101890.31;;;21.91;46.35
53647;BME280;39550;52.230;5.194;2022-09-01T13:34:33;101895.72;;;21.83;45.13
53647;BME280;39550;52.230;5.194;2022-09-01T13:36:58;101894.88;;;21.83;46.14
53647;BME280;39550;52.230;5.194;2022-09-01T13:39:23;101893.06;;;21.85;46.04
53647;BME280;39550;52.230;5.194;2022-09-01T13:41:49;101884.94;;;21.96;46.03
53647;BME280;39550;52.230;5.194;2022-09-01T13:44:14;101884.72;;;22.06;45.13
53647;BME280;39550;52.230;5.194;2022-09-01T13:46:40;101883.81;;;22.07;43.66
53647;BME280;39550;52.230;5.194;2022-09-01T13:49:05;101879.94;;;22.24;45.10
53647;BME280;39550;52.230;5.194;2022-09-01T13:51:31;101879.84;;;22.27;44.35
53647;BME280;39550;52.230;5.194;2022-09-01T13:53:56;101877.28;;;22.24;44.89
53647;BME280;39550;52.230;5.194;2022-09-01T13:56:22;101878.81;;;22.33;44.27
53647;BME280;39550;52.230;5.194;2022-09-01T13:58:47;101877.53;;;22.51;44.41
53647;BME280;39550;52.230;5.194;2022-09-01T14:01:13;101879.09;;;22.58;44.06
53647;BME280;39550;52.230;5.194;2022-09-01T14:03:39;101866.84;;;22.58;44.78
53647;BME280;39550;52.230;5.194;2022-09-01T14:06:06;101865.72;;;22.67;44.42
53647;BME280;39550;52.230;5.194;2022-09-01T14:08:31;101870.84;;;22.72;43.34
53647;BME280;39550;52.230;5.194;2022-09-01T14:10:58;101862.59;;;22.86;42.59
53647;BME280;39550;52.230;5.194;2022-09-01T14:13:24;101867.03;;;23.17;43.91
53647;BME280;39550;52.230;5.194;2022-09-01T14:15:51;101861.59;;;23.23;44.04
53647;BME280;39550;52.230;5.194;2022-09-01T14:18:18;101859.91;;;23.78;42.13